Time;durP1;ratioP1;P1;durP2;ratioP2;P2;SDS_P1;SDS_P2;PMS_P1;PMS_P2;Temp;Humidity;BMP_temperature;BMP_pressure;BME280_temperature;BME280_humidity;BME280_pressure;Samples;Min_cycle;Max_cycle;Signal;HPM_P1;HPM_P2
2023/12/22 00:02:37;;;;;;;;;;;;;;;17.23;45.85;98018.19;10330094;28;766;-70
2023/12/22 00:07:33;;;;;;;;;;;;;;;17.21;46.00;98032.41;10330514;28;877;-70
2023/12/22 00:12:29;;;;;;;;;;;;;;;17.22;45.83;98026.22;10329038;28;953;-70
2023/12/22 00:17:25;;;;;;;;;;;;;;;17.23;46.06;98048.94;10328836;28;808;-70
2023/12/22 00:22:20;;;;;;;;;;;;;;;17.21;45.67;98045.56;10329200;28;1898;-70
2023/12/22 00:27:16;;;;;;;;;;;;;;;17.21;45.72;98050.84;10327499;28;897;-70
2023/12/22 00:32:12;;;;;;;;;;;;;;;17.20;45.80;98060.53;10327677;28;1005;-70
2023/12/22 00:37:08;;;;;;;;;;;;;;;17.20;45.96;98075.50;10327847;28;1410;-70
2023/12/22 00:42:04;;;;;;;;;;;;;;;17.19;45.87;98092.25;10328454;28;1964;-70
2023/12/22 00:47:00;;;;;;;;;;;;;;;17.19;45.79;98092.25;10327689;28;882;-70
2023/12/22 00:51:56;;;;;;;;;;;;;;;17.16;45.94;98090.66;10328349;28;856;-70
2023/12/22 00:56:52;;;;;;;;;;;;;;;17.18;45.81;98103.69;10327313;28;858;-70
2023/12/22 01:01:47;;;;;;;;;;;;;;;17.18;45.77;98104.53;10327862;28;1959;-71
2023/12/22 01:06:43;;;;;;;;;;;;;;;17.16;45.85;98093.28;10326942;28;844;-70
2023/12/22 01:11:39;;;;;;;;;;;;;;;17.17;45.56;98102.03;10326750;28;803;-70
2023/12/22 01:16:35;;;;;;;;;;;;;;;17.17;45.69;98108.13;10327191;28;884;-70
2023/12/22 01:21:31;;;;;;;;;;;;;;;17.16;45.77;98106.47;10326975;28;1894;-70
2023/12/22 01:26:27;;;;;;;;;;;;;;;17.16;45.78;98102.97;10326847;28;917;-70
2023/12/22 01:31:23;;;;;;;;;;;;;;;17.16;45.71;98113.50;10326696;28;802;-70
2023/12/22 01:36:19;;;;;;;;;;;;;;;17.17;45.85;98112.56;10325242;28;1081;-70
2023/12/22 01:41:15;;;;;;;;;;;;;;;17.15;45.56;98130.25;10326390;28;1985;-70
2023/12/22 01:46:11;;;;;;;;;;;;;;;17.15;45.71;98140.78;10325759;28;933;-70
2023/12/22 01:51:07;;;;;;;;;;;;;;;17.15;45.71;98131.06;10325868;28;845;-70
2023/12/22 01:56:03;;;;;;;;;;;;;;;17.14;45.55;98129.41;10325532;28;764;-70
2023/12/22 02:00:58;;;;;;;;;;;;;;;17.12;45.71;98141.81;10325332;28;1909;-70
2023/12/22 02:05:54;;;;;;;;;;;;;;;17.14;45.58;98139.09;10325296;28;853;-70
2023/12/22 02:10:50;;;;;;;;;;;;;;;17.12;45.71;98122.56;10325837;28;774;-70
2023/12/22 02:15:46;;;;;;;;;;;;;;;17.12;45.91;98136.56;10325737;28;869;-70
2023/12/22 02:20:44;;;;;;;;;;;;;;;17.11;45.42;98140.16;10324962;28;1898;-71
2023/12/22 02:25:39;;;;;;;;;;;;;;;17.09;45.63;98110.44;10325004;28;897;-70
2023/12/22 02:30:35;;;;;;;;;;;;;;;17.09;45.54;98110.44;10324839;28;834;-70
2023/12/22 02:35:31;;;;;;;;;;;;;;;17.08;45.71;98122.75;10325457;28;1180;-70
2023/12/22 02:40:27;;;;;;;;;;;;;;;17.09;45.49;98149.94;10324904;28;1922;-70
2023/12/22 02:45:23;;;;;;;;;;;;;;;17.09;45.52;98142.03;10325468;28;860;-70
2023/12/22 02:50:19;;;;;;;;;;;;;;;17.09;45.62;98144.66;10330384;28;822;-70
2023/12/22 02:55:15;;;;;;;;;;;;;;;17.06;45.59;98160.66;10332653;28;864;-70
2023/12/22 03:00:11;;;;;;;;;;;;;;;17.07;45.62;98149.16;10331713;28;1893;-70
2023/12/22 03:05:07;;;;;;;;;;;;;;;17.08;45.56;98148.22;10332317;28;797;-70
2023/12/22 03:10:03;;;;;;;;;;;;;;;17.07;45.48;98159.69;10331490;28;829;-70
2023/12/22 03:14:58;;;;;;;;;;;;;;;17.06;45.71;98173.81;10331358;28;856;-70
2023/12/22 03:19:54;;;;;;;;;;;;;;;17.05;45.57;98175.59;10330985;28;1955;-70
2023/12/22 03:24:50;;;;;;;;;;;;;;;17.05;45.23;98159.78;10331554;28;1562;-70
2023/12/22 03:29:46;;;;;;;;;;;;;;;17.05;45.65;98156.31;10331575;28;758;-70
2023/12/22 03:34:42;;;;;;;;;;;;;;;17.05;45.52;98151.91;10330628;28;857;-70
2023/12/22 03:39:38;;;;;;;;;;;;;;;17.04;45.55;98162.53;10330439;28;1918;-70
2023/12/22 03:44:34;;;;;;;;;;;;;;;17.03;45.62;98163.50;10330845;28;877;-70
2023/12/22 03:49:30;;;;;;;;;;;;;;;17.06;45.24;98173.81;10330103;28;889;-70
2023/12/22 03:54:26;;;;;;;;;;;;;;;17.04;45.42;98162.53;10330481;28;924;-70
2023/12/22 03:59:21;;;;;;;;;;;;;;;17.03;45.36;98180.13;10329375;28;1906;-70
2023/12/22 04:04:17;;;;;;;;;;;;;;;17.02;45.51;98169.69;10329542;28;878;-70
2023/12/22 04:09:13;;;;;;;;;;;;;;;17.02;45.32;98193.38;10330523;28;826;-70
2023/12/22 04:14:09;;;;;;;;;;;;;;;16.96;45.36;98188.53;10329731;28;810;-69
2023/12/22 04:19:05;;;;;;;;;;;;;;;16.92;45.54;98192.28;10328864;28;1906;-69
2023/12/22 04:24:01;;;;;;;;;;;;;;;16.86;45.43;98194.38;10329249;28;837;-70
2023/12/22 04:28:57;;;;;;;;;;;;;;;16.91;45.13;98183.53;10328600;28;933;-71
2023/12/22 04:33:53;;;;;;;;;;;;;;;17.06;44.59;98187.81;10328339;28;969;-74
2023/12/22 04:38:49;;;;;;;;;;;;;;;17.08;44.85;98182.44;10328198;28;1972;-72
2023/12/22 04:43:45;;;;;;;;;;;;;;;17.17;44.85;98207.34;10327880;28;841;-70
2023/12/22 04:48:40;;;;;;;;;;;;;;;17.16;45.01;98203.00;10326740;28;962;-71
2023/12/22 04:53:36;;;;;;;;;;;;;;;17.14;45.01;98191.75;10325465;28;798;-70
2023/12/22 04:58:32;;;;;;;;;;;;;;;17.20;44.82;98200.06;10327153;28;1897;-71
2023/12/22 05:03:28;;;;;;;;;;;;;;;17.26;44.80;98215.47;10326437;28;971;-71
2023/12/22 05:08:24;;;;;;;;;;;;;;;17.33;44.82;98202.75;10326690;28;880;-70
2023/12/22 05:13:20;;;;;;;;;;;;;;;17.30;45.06;98214.34;10326035;28;940;-72
2023/12/22 05:18:16;;;;;;;;;;;;;;;17.30;44.91;98219.59;10326235;28;1905;-71
2023/12/22 05:23:12;;;;;;;;;;;;;;;17.35;44.99;98231.63;10325130;28;878;-71
2023/12/22 05:28:08;;;;;;;;;;;;;;;17.39;45.00;98222.56;10326067;28;869;-72
2023/12/22 05:33:04;;;;;;;;;;;;;;;17.37;45.02;98232.34;10326023;28;869;-69
2023/12/22 05:37:59;;;;;;;;;;;;;;;17.25;45.45;98228.75;10327014;28;1992;-68
2023/12/22 05:42:56;;;;;;;;;;;;;;;17.19;45.26;98219.47;10325069;28;1057;-69
2023/12/22 05:47:52;;;;;;;;;;;;;;;17.19;45.20;98239.69;10325564;28;856;-71
2023/12/22 05:52:49;;;;;;;;;;;;;;;17.20;45.13;98252.75;10325257;28;955;-71
2023/12/22 05:57:45;;;;;;;;;;;;;;;17.29;45.04;98253.91;10325158;28;1910;-71
2023/12/22 06:02:40;;;;;;;;;;;;;;;17.28;44.94;98255.72;10324824;28;868;-72
2023/12/22 06:07:36;;;;;;;;;;;;;;;17.38;44.84;98268.31;10325040;28;894;-71
2023/12/22 06:12:32;;;;;;;;;;;;;;;17.33;45.05;98270.38;10325225;28;984;-71
2023/12/22 06:17:28;;;;;;;;;;;;;;;17.31;44.96;98265.22;10324336;28;881;-71
2023/12/22 06:22:24;;;;;;;;;;;;;;;17.38;44.87;98281.47;10325237;28;1894;-71
2023/12/22 06:27:20;;;;;;;;;;;;;;;17.39;44.92;98277.88;10333715;28;877;-71
2023/12/22 06:32:17;;;;;;;;;;;;;;;17.35;45.22;98286.94;10332397;28;953;-77
2023/12/22 06:37:13;;;;;;;;;;;;;;;17.38;45.17;98281.47;10332152;28;1400;-71
2023/12/22 06:42:11;;;;;;;;;;;;;;;17.40;44.98;98277.78;10332193;28;1977;-71
2023/12/22 06:47:06;;;;;;;;;;;;;;;17.39;45.29;98275.25;10332305;28;879;-71
2023/12/22 06:52:02;;;;;;;;;;;;;;;17.33;45.42;98280.91;10331955;28;1184;-71
2023/12/22 06:56:58;;;;;;;;;;;;;;;17.31;45.54;98281.00;10331883;28;945;-71
2023/12/22 07:01:55;;;;;;;;;;;;;;;17.28;45.56;98289.94;10331154;28;1902;-71
2023/12/22 07:06:51;;;;;;;;;;;;;;;17.24;45.59;98285.84;10331619;28;853;-71
2023/12/22 07:11:47;;;;;;;;;;;;;;;17.08;45.98;98279.84;10331062;28;871;-71
2023/12/22 07:16:43;;;;;;;;;;;;;;;16.97;46.03;98270.00;10331510;28;833;-71
2023/12/22 07:21:39;;;;;;;;;;;;;;;16.90;46.03;98266.09;10331254;28;1914;-71
2023/12/22 07:26:34;;;;;;;;;;;;;;;16.87;46.04;98279.41;10330596;28;861;-71
2023/12/22 07:31:30;;;;;;;;;;;;;;;16.88;46.29;98283.75;10330370;28;964;-71
2023/12/22 07:36:26;;;;;;;;;;;;;;;16.86;45.96;98289.09;10329160;28;1150;-71
2023/12/22 07:41:22;;;;;;;;;;;;;;;16.85;45.96;98279.53;10329322;28;1913;-71
2023/12/22 07:46:18;;;;;;;;;;;;;;;16.88;46.03;98280.28;10330472;28;859;-70
2023/12/22 07:51:14;;;;;;;;;;;;;;;16.91;45.83;98288.81;10329638;28;850;-70
2023/12/22 07:56:10;;;;;;;;;;;;;;;16.91;45.74;98295.88;10328762;28;1208;-70
2023/12/22 08:01:06;;;;;;;;;;;;;;;16.94;45.65;98280.72;10329325;28;1955;-70
2023/12/22 08:06:02;;;;;;;;;;;;;;;16.93;45.66;98268.53;10329221;28;845;-71
2023/12/22 08:10:58;;;;;;;;;;;;;;;16.93;45.62;98258.00;10328961;28;827;-71
2023/12/22 08:15:54;;;;;;;;;;;;;;;16.96;45.37;98246.44;10329814;28;853;-71
2023/12/22 08:20:50;;;;;;;;;;;;;;;16.95;45.40;98242.97;10328462;28;1890;-73
2023/12/22 08:25:46;;;;;;;;;;;;;;;17.04;45.36;98244.16;10328259;28;838;-72
2023/12/22 08:30:42;;;;;;;;;;;;;;;17.15;45.15;98220.59;10328127;28;854;-72
2023/12/22 08:35:38;;;;;;;;;;;;;;;17.26;45.42;98212.00;10327792;28;1093;-70
2023/12/22 08:40:35;;;;;;;;;;;;;;;17.30;45.50;98209.06;10327646;28;1981;-71
2023/12/22 08:45:31;;;;;;;;;;;;;;;17.31;45.25;98218.63;10327122;28;881;-71
2023/12/22 08:50:27;;;;;;;;;;;;;;;17.27;45.56;98221.59;10327171;28;1189;-71
2023/12/22 08:55:23;;;;;;;;;;;;;;;17.33;45.52;98213.28;10326923;28;1046;-71
2023/12/22 09:00:18;;;;;;;;;;;;;;;17.22;45.68;98221.06;10326873;28;1902;-72
2023/12/22 09:05:14;;;;;;;;;;;;;;;17.13;45.99;98261.97;10326646;28;755;-73
2023/12/22 09:10:12;;;;;;;;;;;;;;;17.13;45.74;98283.03;10327119;28;813;-71
2023/12/22 09:15:08;;;;;;;;;;;;;;;16.99;46.17;98241.78;10326332;28;848;-71
2023/12/22 09:20:04;;;;;;;;;;;;;;;16.94;46.38;98269.34;10325975;28;1957;-71
2023/12/22 09:25:00;;;;;;;;;;;;;;;16.84;46.35;98262.03;10326579;28;841;-73
2023/12/22 09:29:55;;;;;;;;;;;;;;;16.80;46.15;98246.56;10325733;28;782;-71
2023/12/22 09:34:51;;;;;;;;;;;;;;;16.80;46.32;98236.03;10326445;28;852;-71
2023/12/22 09:39:47;;;;;;;;;;;;;;;16.81;46.32;98246.44;10325043;28;1978;-70
2023/12/22 09:44:43;;;;;;;;;;;;;;;16.80;46.14;98247.38;10326705;28;849;-71
2023/12/22 09:49:39;;;;;;;;;;;;;;;16.78;46.07;98245.78;10325245;28;926;-71
2023/12/22 09:54:35;;;;;;;;;;;;;;;16.80;46.18;98252.66;10325421;28;775;-71
2023/12/22 09:59:31;;;;;;;;;;;;;;;16.82;45.97;98250.78;10324304;28;1905;-70
2023/12/22 10:04:27;;;;;;;;;;;;;;;16.83;45.93;98226.13;10325738;28;831;-70
2023/12/22 10:09:23;;;;;;;;;;;;;;;16.85;45.80;98212.91;10324911;28;821;-71
2023/12/22 10:14:22;;;;;;;;;;;;;;;16.85;45.92;98236.59;10324864;28;766;-71
2023/12/22 10:19:18;;;;;;;;;;;;;;;16.89;45.69;98260.91;10324563;28;1956;-71
2023/12/22 10:24:14;;;;;;;;;;;;;;;16.86;45.80;98236.47;10324564;28;889;-70
2023/12/22 10:29:10;;;;;;;;;;;;;;;16.89;45.81;98218.78;10323966;28;990;-70
2023/12/22 10:34:05;;;;;;;;;;;;;;;16.89;45.67;98201.22;10324360;28;1016;-71
2023/12/22 10:39:01;;;;;;;;;;;;;;;16.91;45.60;98211.66;10323615;28;1917;-70
2023/12/22 10:43:57;;;;;;;;;;;;;;;17.08;45.44;98185.06;10324190;28;818;-71
2023/12/22 10:48:53;;;;;;;;;;;;;;;17.27;45.27;98179.47;10324487;28;1175;-72
2023/12/22 10:53:49;;;;;;;;;;;;;;;17.26;45.42;98183.03;10323985;28;923;-71
2023/12/22 10:58:45;;;;;;;;;;;;;;;17.27;45.64;98172.41;10324903;28;1914;-73
2023/12/22 11:03:41;;;;;;;;;;;;;;;17.33;45.49;98175.56;10324193;28;914;-72
2023/12/22 11:08:38;;;;;;;;;;;;;;;17.34;45.66;98183.34;10325764;28;956;-69
2023/12/22 11:13:33;;;;;;;;;;;;;;;17.30;45.55;98182.72;10332293;28;881;-70
2023/12/22 11:18:29;;;;;;;;;;;;;;;17.22;45.75;98174.50;10330654;28;1898;-71
2023/12/22 11:23:25;;;;;;;;;;;;;;;17.04;46.25;98160.75;10331837;28;892;-73
2023/12/22 11:28:21;;;;;;;;;;;;;;;17.00;46.16;98177.69;10331020;28;826;-74
2023/12/22 11:33:17;;;;;;;;;;;;;;;17.00;46.20;98161.91;10330709;28;931;-71
2023/12/22 11:38:13;;;;;;;;;;;;;;;16.97;46.03;98153.34;10330275;28;1987;-69
2023/12/22 11:43:09;;;;;;;;;;;;;;;16.99;46.10;98175.16;10330439;28;802;-71
2023/12/22 11:48:05;;;;;;;;;;;;;;;17.00;45.96;98171.56;10330239;28;910;-71
2023/12/22 11:53:01;;;;;;;;;;;;;;;16.96;46.16;98185.88;10330090;28;770;-70
2023/12/22 11:57:59;;;;;;;;;;;;;;;16.96;46.15;98164.84;10329911;28;1965;-71
2023/12/22 12:02:54;;;;;;;;;;;;;;;16.99;45.88;98159.38;10330327;28;824;-70
2023/12/22 12:07:50;;;;;;;;;;;;;;;16.92;46.07;98160.69;10328951;28;1119;-70
2023/12/22 12:12:46;;;;;;;;;;;;;;;16.93;45.91;98160.63;10329335;28;947;-71
2023/12/22 12:17:42;;;;;;;;;;;;;;;16.96;45.68;98167.47;10329722;28;932;-71
2023/12/22 12:22:39;;;;;;;;;;;;;;;16.89;45.79;98151.22;10328110;28;1886;-71
2023/12/22 12:27:36;;;;;;;;;;;;;;;16.93;45.92;98151.88;10328671;28;901;-72
2023/12/22 12:32:33;;;;;;;;;;;;;;;16.91;45.72;98151.97;10329014;28;1144;-70
2023/12/22 12:37:29;;;;;;;;;;;;;;;16.91;45.91;98141.44;10328658;28;1755;-70
2023/12/22 12:42:25;;;;;;;;;;;;;;;16.92;45.79;98152.81;10328067;28;1910;-70
2023/12/22 12:47:20;;;;;;;;;;;;;;;16.92;45.71;98139.66;10329077;28;774;-70
2023/12/22 12:52:17;;;;;;;;;;;;;;;16.90;46.02;98131.88;10327699;28;870;-70
2023/12/22 12:57:13;;;;;;;;;;;;;;;16.91;45.71;98136.19;10327411;28;1700;-70
2023/12/22 13:02:09;;;;;;;;;;;;;;;16.92;45.87;98150.16;10326706;28;1898;-70
2023/12/22 13:07:05;;;;;;;;;;;;;;;16.88;45.92;98148.69;10327048;28;817;-70
2023/12/22 13:12:01;;;;;;;;;;;;;;;16.91;45.74;98124.81;10326842;28;782;-71
2023/12/22 13:16:57;;;;;;;;;;;;;;;16.91;45.81;98128.28;10328032;28;837;-71
2023/12/22 13:21:53;;;;;;;;;;;;;;;16.89;45.73;98129.31;10326607;28;1971;-70
2023/12/22 13:26:49;;;;;;;;;;;;;;;16.90;45.79;98134.50;10326906;28;860;-70
2023/12/22 13:31:45;;;;;;;;;;;;;;;16.89;45.92;98116.16;10326280;28;881;-71
2023/12/22 13:36:44;;;;;;;;;;;;;;;16.88;45.89;98112.69;10325834;28;1149;-69
2023/12/22 13:41:46;;;;;;;;;;;;;;;16.90;45.93;98110.81;10325858;28;1914;-70
2023/12/22 13:46:42;;;;;;;;;;;;;;;16.89;45.89;98111.75;10326772;28;774;-70
2023/12/22 13:51:38;;;;;;;;;;;;;;;16.89;45.71;98116.16;10325861;28;861;-70
2023/12/22 13:56:35;;;;;;;;;;;;;;;16.92;45.79;98121.22;10326883;28;845;-71
2023/12/22 14:01:31;;;;;;;;;;;;;;;16.88;45.89;98110.06;10325547;28;1926;-70
2023/12/22 14:06:27;;;;;;;;;;;;;;;16.88;45.87;98103.97;10325369;28;743;-73
2023/12/22 14:11:23;;;;;;;;;;;;;;;16.89;45.83;98087.22;10325040;28;972;-70
2023/12/22 14:16:18;;;;;;;;;;;;;;;16.88;45.94;98080.28;10325216;28;754;-70
2023/12/22 14:21:15;;;;;;;;;;;;;;;16.86;45.89;98064.56;10325033;28;1957;-70
2023/12/22 14:26:10;;;;;;;;;;;;;;;16.89;45.86;98108.28;10324834;28;858;-70
2023/12/22 14:31:06;;;;;;;;;;;;;;;16.86;45.91;98117.22;10324083;28;876;-70
2023/12/22 14:36:02;;;;;;;;;;;;;;;16.89;45.71;98142.47;10325077;28;1703;-70
2023/12/22 14:40:58;;;;;;;;;;;;;;;16.88;45.84;98130.28;10323791;28;1905;-69
2023/12/22 14:45:54;;;;;;;;;;;;;;;16.86;45.80;98118.03;10329135;28;878;-70
2023/12/22 14:50:50;;;;;;;;;;;;;;;16.88;45.94;98111.84;10332125;28;949;-69
2023/12/22 14:55:46;;;;;;;;;;;;;;;16.89;45.88;98110.91;10332005;28;798;-70
2023/12/22 15:00:42;;;;;;;;;;;;;;;17.05;45.64;98135.25;10331795;28;1902;-71
2023/12/22 15:05:38;;;;;;;;;;;;;;;17.26;45.65;98144.38;10331865;28;778;-70
2023/12/22 15:10:34;;;;;;;;;;;;;;;17.28;45.69;98139.00;10331681;28;928;-71
2023/12/22 15:15:29;;;;;;;;;;;;;;;17.29;45.88;98138.06;10332092;28;857;-72
2023/12/22 15:20:25;;;;;;;;;;;;;;;17.32;45.94;98143.13;10331225;28;1898;-71
2023/12/22 15:25:21;;;;;;;;;;;;;;;17.31;45.80;98142.28;10331171;28;852;-71
2023/12/22 15:30:17;;;;;;;;;;;;;;;17.32;45.82;98137.88;10331521;28;770;-71
2023/12/22 15:35:13;;;;;;;;;;;;;;;17.44;45.56;98152.84;10330450;28;1097;-71
2023/12/22 15:40:10;;;;;;;;;;;;;;;17.34;45.47;98161.44;10331518;28;1918;-72
2023/12/22 15:45:06;;;;;;;;;;;;;;;17.35;45.91;98179.81;10331049;28;865;-71
2023/12/22 15:50:02;;;;;;;;;;;;;;;17.35;45.63;98173.69;10330288;28;821;-71
2023/12/22 15:54:58;;;;;;;;;;;;;;;17.40;45.49;98161.06;10329063;28;845;-71
2023/12/22 15:59:54;;;;;;;;;;;;;;;17.36;45.67;98149.03;10329808;28;1897;-71
2023/12/22 16:04:50;;;;;;;;;;;;;;;17.33;45.79;98139.56;10330049;28;916;-71
2023/12/22 16:09:46;;;;;;;;;;;;;;;17.34;45.54;98161.44;10330108;28;882;-71
2023/12/22 16:14:42;;;;;;;;;;;;;;;17.36;45.74;98164.84;10330117;28;892;-71
2023/12/22 16:19:38;;;;;;;;;;;;;;;17.38;45.69;98184.84;10329039;28;1951;-71
2023/12/22 16:24:34;;;;;;;;;;;;;;;17.34;45.65;98188.63;10329495;28;784;-71
2023/12/22 16:29:30;;;;;;;;;;;;;;;17.35;45.83;98171.06;10328713;28;864;-71
2023/12/22 16:34:26;;;;;;;;;;;;;;;17.35;45.81;98179.81;10328483;28;790;-71
2023/12/22 16:39:22;;;;;;;;;;;;;;;17.40;45.41;98168.97;10329398;28;1913;-72
2023/12/22 16:44:21;;;;;;;;;;;;;;;17.36;45.63;98194.66;10327690;28;964;-71
2023/12/22 16:49:17;;;;;;;;;;;;;;;17.37;45.87;98203.38;10327784;28;988;-71
2023/12/22 16:54:13;;;;;;;;;;;;;;;17.37;45.58;98209.53;10327650;28;1378;-71
2023/12/22 16:59:09;;;;;;;;;;;;;;;17.38;45.79;98207.72;10327548;28;1898;-72
2023/12/22 17:04:05;;;;;;;;;;;;;;;17.42;45.49;98209.19;10327214;28;1106;-70
2023/12/22 17:09:01;;;;;;;;;;;;;;;17.26;45.86;98198.81;10326833;28;980;-70
2023/12/22 17:13:57;;;;;;;;;;;;;;;17.29;45.96;98207.38;10326888;28;1026;-70
2023/12/22 17:18:53;;;;;;;;;;;;;;;17.33;45.90;98228.25;10326661;28;1897;-71
2023/12/22 17:23:49;;;;;;;;;;;;;;;17.37;45.91;98248.16;10326554;28;922;-71
2023/12/22 17:28:46;;;;;;;;;;;;;;;17.41;45.83;98252.28;10326401;28;1022;-72
2023/12/22 17:33:42;;;;;;;;;;;;;;;17.42;45.66;98298.75;10326229;28;838;-71
2023/12/22 17:38:38;;;;;;;;;;;;;;;17.40;45.77;98298.03;10325999;28;1918;-71
2023/12/22 17:43:34;;;;;;;;;;;;;;;17.41;45.87;98331.31;10326613;28;988;-71
2023/12/22 17:48:30;;;;;;;;;;;;;;;17.41;45.84;98347.13;10326526;28;786;-72
2023/12/22 17:53:26;;;;;;;;;;;;;;;17.45;45.71;98322.28;10325721;28;864;-71
2023/12/22 17:58:22;;;;;;;;;;;;;;;17.43;45.53;98325.00;10325666;28;1898;-71
2023/12/22 18:03:18;;;;;;;;;;;;;;;17.43;45.70;98330.28;10325530;28;996;-72
2023/12/22 18:08:13;;;;;;;;;;;;;;;17.45;45.76;98336.28;10324936;28;1116;-71
2023/12/22 18:13:09;;;;;;;;;;;;;;;17.46;45.69;98326.59;10325955;28;862;-71
2023/12/22 18:18:05;;;;;;;;;;;;;;;17.47;45.74;98325.63;10325497;28;917;-71
2023/12/22 18:23:01;;;;;;;;;;;;;;;17.45;45.69;98317.84;10333513;28;1902;-71
2023/12/22 18:27:57;;;;;;;;;;;;;;;17.48;45.66;98333.44;10332801;28;1133;-71
2023/12/22 18:32:53;;;;;;;;;;;;;;;17.41;45.83;98345.31;10333294;28;765;-72
2023/12/22 18:37:49;;;;;;;;;;;;;;;17.42;45.68;98331.22;10333871;28;1187;-71
2023/12/22 18:42:45;;;;;;;;;;;;;;;17.47;45.52;98355.44;10332179;28;1967;-71
2023/12/22 18:47:41;;;;;;;;;;;;;;;17.45;45.67;98333.66;10332608;28;968;-71
2023/12/22 18:52:36;;;;;;;;;;;;;;;17.47;45.46;98363.34;10333018;28;964;-71
2023/12/22 18:57:32;;;;;;;;;;;;;;;17.51;45.37;98364.03;10332858;28;787;-71
2023/12/22 19:02:28;;;;;;;;;;;;;;;17.48;45.38;98377.41;10331988;28;1882;-71
2023/12/22 19:07:24;;;;;;;;;;;;;;;17.49;45.52;98365.91;10331889;28;802;-71
2023/12/22 19:12:20;;;;;;;;;;;;;;;17.48;45.70;98382.66;10331687;28;937;-71
2023/12/22 19:17:16;;;;;;;;;;;;;;;17.52;45.35;98386.78;10330958;28;1167;-71
2023/12/22 19:22:12;;;;;;;;;;;;;;;17.52;45.51;98392.03;10331285;28;1917;-71
2023/12/22 19:27:08;;;;;;;;;;;;;;;17.51;45.40;98396.47;10332022;28;861;-72
2023/12/22 19:32:04;;;;;;;;;;;;;;;17.49;45.38;98415.97;10331550;28;964;-71
2023/12/22 19:36:59;;;;;;;;;;;;;;;17.50;45.36;98434.31;10330555;28;1095;-71
2023/12/22 19:41:55;;;;;;;;;;;;;;;17.52;45.56;98428.94;10330718;28;1910;-71
2023/12/22 19:46:51;;;;;;;;;;;;;;;17.51;45.44;98429.88;10330468;28;802;-71
2023/12/22 19:51:47;;;;;;;;;;;;;;;17.52;45.46;98432.41;10330281;28;770;-71
2023/12/22 19:56:43;;;;;;;;;;;;;;;17.55;45.43;98427.88;10330317;28;956;-71
2023/12/22 20:01:39;;;;;;;;;;;;;;;17.57;45.47;98439.19;10329832;28;1941;-72
2023/12/22 20:06:35;;;;;;;;;;;;;;;17.56;45.64;98446.25;10330266;28;865;-71
2023/12/22 20:11:31;;;;;;;;;;;;;;;17.58;45.46;98473.34;10330109;28;818;-71
2023/12/22 20:16:27;;;;;;;;;;;;;;;17.53;45.49;98472.78;10329328;28;790;-71
2023/12/22 20:21:23;;;;;;;;;;;;;;;17.56;45.34;98485.75;10329631;28;1897;-71
2023/12/22 20:26:19;;;;;;;;;;;;;;;17.56;45.29;98506.84;10328933;28;798;-71
2023/12/22 20:31:15;;;;;;;;;;;;;;;17.54;45.33;98503.44;10328733;28;750;-71
2023/12/22 20:36:11;;;;;;;;;;;;;;;17.53;45.33;98509.69;10328785;28;1314;-71
2023/12/22 20:41:08;;;;;;;;;;;;;;;17.56;45.36;98530.56;10327718;28;1977;-71
2023/12/22 20:46:04;;;;;;;;;;;;;;;17.50;45.49;98521.25;10328895;28;841;-71
2023/12/22 20:51:00;;;;;;;;;;;;;;;17.48;45.58;98532.81;10327809;28;858;-71
2023/12/22 20:55:55;;;;;;;;;;;;;;;17.50;45.43;98555.50;10327714;28;969;-71
2023/12/22 21:00:51;;;;;;;;;;;;;;;17.47;45.32;98557.44;10328104;28;1890;-71
2023/12/22 21:05:49;;;;;;;;;;;;;;;17.43;45.42;98577.88;10327315;28;783;-71
2023/12/22 21:10:45;;;;;;;;;;;;;;;17.45;45.76;98573.38;10327796;28;1557;-71
2023/12/22 21:15:40;;;;;;;;;;;;;;;17.42;45.50;98585.84;10327554;28;936;-71
2023/12/22 21:20:39;;;;;;;;;;;;;;;17.39;45.54;98584.25;10326702;28;1890;-71
2023/12/22 21:25:35;;;;;;;;;;;;;;;17.40;45.40;98582.50;10326603;28;810;-71
2023/12/22 21:30:31;;;;;;;;;;;;;;;17.40;45.57;98587.75;10327027;28;841;-71
2023/12/22 21:35:27;;;;;;;;;;;;;;;17.45;45.55;98606.78;10326035;28;1104;-71
2023/12/22 21:40:23;;;;;;;;;;;;;;;17.40;45.49;98608.84;10326143;28;1969;-71
2023/12/22 21:45:20;;;;;;;;;;;;;;;17.40;45.60;98616.75;10326735;28;857;-71
2023/12/22 21:50:16;;;;;;;;;;;;;;;17.40;45.62;98635.19;10325221;28;890;-71
2023/12/22 21:55:11;;;;;;;;;;;;;;;17.39;45.67;98646.63;10324908;28;822;-71
2023/12/22 22:00:09;;;;;;;;;;;;;;;17.36;45.50;98650.28;10325526;28;1894;-71
2023/12/22 22:05:05;;;;;;;;;;;;;;;17.31;45.75;98670.78;10326151;28;773;-71
2023/12/22 22:10:00;;;;;;;;;;;;;;;17.31;45.72;98671.63;10324845;28;889;-71
2023/12/22 22:14:56;;;;;;;;;;;;;;;17.30;45.74;98682.25;10325959;28;885;-71
2023/12/22 22:19:52;;;;;;;;;;;;;;;17.27;45.68;98675.41;10325793;28;1944;-71
2023/12/22 22:24:48;;;;;;;;;;;;;;;17.28;45.59;98703.41;10325740;28;787;-71
2023/12/22 22:29:45;;;;;;;;;;;;;;;17.24;45.72;98688.75;10325062;28;755;-71
2023/12/22 22:34:41;;;;;;;;;;;;;;;17.25;45.75;98705.38;10324867;28;957;-71
2023/12/22 22:39:37;;;;;;;;;;;;;;;17.24;45.74;98715.09;10325437;28;1983;-70
2023/12/22 22:44:34;;;;;;;;;;;;;;;17.22;45.69;98722.22;10324778;28;799;-71
2023/12/22 22:49:30;;;;;;;;;;;;;;;17.20;45.88;98737.25;10324986;28;879;-71
2023/12/22 22:54:26;;;;;;;;;;;;;;;17.23;45.73;98750.22;10325225;28;818;-71
2023/12/22 22:59:22;;;;;;;;;;;;;;;17.23;45.50;98762.56;10325361;28;1890;-71
2023/12/22 23:04:18;;;;;;;;;;;;;;;17.18;45.71;98759.34;10324971;28;785;-71
2023/12/22 23:09:14;;;;;;;;;;;;;;;17.19;45.64;98780.31;10331935;28;928;-71
2023/12/22 23:14:10;;;;;;;;;;;;;;;17.21;45.53;98777.59;10331655;28;969;-71
2023/12/22 23:19:06;;;;;;;;;;;;;;;17.19;45.62;98772.44;10331478;28;1894;-70
2023/12/22 23:24:04;;;;;;;;;;;;;;;17.18;45.56;98788.28;10331919;28;874;-71
2023/12/22 23:29:00;;;;;;;;;;;;;;;17.21;45.42;98775.81;10331122;28;913;-71
2023/12/22 23:33:56;;;;;;;;;;;;;;;17.19;45.45;98775.06;10330961;28;836;-70
2023/12/22 23:38:52;;;;;;;;;;;;;;;17.18;45.30;98786.50;10330656;28;1987;-71
2023/12/22 23:43:47;;;;;;;;;;;;;;;17.17;45.52;98789.25;10330612;28;848;-71
2023/12/22 23:48:43;;;;;;;;;;;;;;;17.19;45.70;98790.84;10331090;28;846;-71
2023/12/22 23:53:39;;;;;;;;;;;;;;;17.19;45.42;98796.13;10330847;28;838;-70
2023/12/22 23:58:35;;;;;;;;;;;;;;;17.17;45.49;98798.00;10330026;28;1897;-71
